Time;durP1;ratioP1;P1;durP2;ratioP2;P2;SDS_P1;SDS_P2;PMS_P1;PMS_P2;Temp;Humidity;BMP_temperature;BMP_pressure;BME280_temperature;BME280_humidity;BME280_pressure;Samples;Min_cycle;Max_cycle;Signal;HPM_P1;HPM_P2
2022/05/25 00:03:11;;;;;;;1.27;1.17;;;;;;;10.21;100.00;96266.06;10408469;28;20199;-76
2022/05/25 00:08:13;;;;;;;2.93;1.30;;;;;;;10.14;100.00;96265.94;10408993;28;20227;-76
2022/05/25 00:13:13;;;;;;;4.57;1.30;;;;;;;10.08;100.00;96263.16;10409138;28;20192;-76
2022/05/25 00:18:13;;;;;;;5.13;1.23;;;;;;;10.03;100.00;96255.81;10408735;28;20707;-76
2022/05/25 00:23:14;;;;;;;1.30;1.20;;;;;;;9.98;100.00;96250.22;10409203;28;20724;-76
2022/05/25 00:28:16;;;;;;;1.17;1.13;;;;;;;9.86;100.00;96254.16;10408936;28;20731;-76
2022/05/25 00:33:20;;;;;;;3.10;1.20;;;;;;;9.93;100.00;96266.41;10408754;28;20624;-76
2022/05/25 00:38:21;;;;;;;3.77;1.40;;;;;;;10.05;100.00;96271.34;10408769;28;20228;-76
2022/05/25 00:43:21;;;;;;;1.40;1.30;;;;;;;9.90;100.00;96268.56;10408843;28;20255;-76
2022/05/25 00:48:33;;;;;;;1.47;1.13;;;;;;;9.99;100.00;96260.53;10408522;28;20184;-76
2022/05/25 00:53:34;;;;;;;1.40;1.10;;;;;;;9.94;100.00;96254.97;10389855;28;20322;-76
2022/05/25 00:58:37;;;;;;;1.27;1.20;;;;;;;9.92;100.00;96259.56;10390937;28;20227;-76
2022/05/25 01:03:37;;;;;;;3.57;1.00;;;;;;;9.85;100.00;96269.03;10389902;28;20184;-76
2022/05/25 01:08:53;;;;;;;3.90;1.20;;;;;;;9.79;100.00;96280.16;10407940;28;20275;-76
2022/05/25 01:14:12;;;;;;;5.33;1.43;;;;;;;9.66;100.00;96278.00;10394515;28;20219;-76
2022/05/25 01:19:20;;;;;;;6.03;1.30;;;;;;;9.50;100.00;96273.56;10415466;28;20656;-76
2022/05/25 01:24:33;;;;;;;1.40;1.30;;;;;;;9.53;100.00;96285.53;10397486;28;20188;-76
2022/05/25 01:30:00;;;;;;;2.63;1.43;;;;;;;9.43;100.00;96283.88;10397423;28;20231;-75
2022/05/25 01:35:08;;;;;;;2.53;1.33;;;;;;;9.36;100.00;96290.69;10396577;28;20184;-76
2022/05/25 01:40:17;;;;;;;1.50;1.30;;;;;;;9.22;100.00;96294.75;10396345;28;20631;-76
2022/05/25 01:45:19;;;;;;;1.57;1.20;;;;;;;9.20;100.00;96293.25;10395613;28;20192;-75
2022/05/25 01:50:23;;;;;;;2.20;1.30;;;;;;;9.19;100.00;96295.06;10413413;28;20184;-76
2022/05/25 01:55:28;;;;;;;3.90;1.33;;;;;;;9.13;100.00;96306.16;10413314;28;20236;-76
2022/05/25 02:00:35;;;;;;;2.53;1.30;;;;;;;9.16;100.00;96310.22;10395117;28;20217;-76
2022/05/25 02:05:38;;;;;;;5.83;1.20;;;;;;;9.16;100.00;96297.16;10413050;28;20197;-76
2022/05/25 02:11:03;;;;;;;1.40;1.27;;;;;;;9.13;100.00;96300.09;10395468;28;20181;-75
2022/05/25 02:16:26;;;;;;;1.77;1.10;;;;;;;9.12;100.00;96299.28;10413407;28;20180;-76
2022/05/25 02:21:52;;;;;;;1.40;1.30;;;;;;;9.04;100.00;96301.88;10395474;28;20225;-76
2022/05/25 02:26:58;;;;;;;1.60;1.40;;;;;;;8.95;100.00;96311.44;10394683;28;20258;-76
2022/05/25 02:32:08;;;;;;;1.60;1.23;;;;;;;8.87;100.00;96307.00;10395040;28;20177;-76
2022/05/25 02:37:08;;;;;;;1.73;1.50;;;;;;;8.83;100.00;96281.34;10394631;28;20220;-75
2022/05/25 02:42:14;;;;;;;2.30;1.40;;;;;;;8.89;100.00;96284.16;10412207;28;20286;-75
2022/05/25 02:47:14;;;;;;;1.73;1.30;;;;;;;8.78;100.00;96286.25;10412154;28;20200;-76
2022/05/25 02:52:15;;;;;;;1.53;1.43;;;;;;;8.67;100.00;96297.78;10411719;28;20176;-75
2022/05/25 02:57:15;;;;;;;1.77;1.60;;;;;;;8.83;100.00;96297.84;10411804;28;20644;-76
2022/05/25 03:02:15;;;;;;;1.97;1.67;;;;;;;8.81;100.00;96301.59;10408738;28;20331;-76
2022/05/25 03:07:16;;;;;;;1.10;1.00;;;;;;;8.78;100.00;96296.69;10408932;28;20200;-76
2022/05/25 03:12:16;;;;;;;1.60;1.20;;;;;;;8.74;100.00;96297.00;10406622;28;20207;-76
2022/05/25 03:17:16;;;;;;;1.80;1.30;;;;;;;8.82;100.00;96298.84;10407732;28;20195;-76
2022/05/25 03:22:17;;;;;;;1.63;1.10;;;;;;;8.80;100.00;96305.97;10407397;28;20627;-76
2022/05/25 03:27:18;;;;;;;4.83;1.13;;;;;;;8.85;100.00;96313.34;10407405;28;20574;-76
2022/05/25 03:32:18;;;;;;;1.40;1.30;;;;;;;8.83;100.00;96329.19;10407173;28;20667;-76
2022/05/25 03:37:18;;;;;;;4.80;1.50;;;;;;;8.90;100.00;96330.19;10406478;28;20192;-76
2022/05/25 03:42:19;;;;;;;1.57;1.47;;;;;;;8.90;100.00;96335.44;10407205;28;20307;-76
2022/05/25 03:47:19;;;;;;;3.63;1.43;;;;;;;8.89;100.00;96325.94;10406469;28;20215;-75
2022/05/25 03:52:21;;;;;;;1.40;1.30;;;;;;;8.92;100.00;96320.41;10406904;28;20195;-76
2022/05/25 03:57:21;;;;;;;2.07;1.40;;;;;;;9.09;100.00;96328.34;10406072;28;20305;-76
2022/05/25 04:02:21;;;;;;;3.47;1.40;;;;;;;9.21;100.00;96327.06;10408013;28;20262;-76
2022/05/25 04:07:22;;;;;;;2.67;1.13;;;;;;;9.22;100.00;96320.06;10392400;28;20201;-75
2022/05/25 04:12:22;;;;;;;5.33;1.63;;;;;;;9.18;100.00;96330.00;10409366;28;20204;-75
2022/05/25 04:17:23;;;;;;;3.27;1.80;;;;;;;9.19;100.00;96333.41;10410028;28;20246;-75
2022/05/25 04:22:23;;;;;;;1.90;1.50;;;;;;;9.28;100.00;96332.50;10409318;28;20203;-75
2022/05/25 04:27:23;;;;;;;2.63;1.87;;;;;;;9.27;100.00;96343.94;10409811;28;20193;-76
2022/05/25 04:32:24;;;;;;;1.67;1.27;;;;;;;9.38;100.00;96350.66;10409249;28;20188;-76
2022/05/25 04:42:45;;;;;;;3.83;1.60;;;;;;;9.75;100.00;96360.75;10409243;28;20193;-76
2022/05/25 04:47:45;;;;;;;3.93;1.47;;;;;;;10.19;100.00;96359.66;10411635;28;20200;-76
2022/05/25 04:52:46;;;;;;;1.63;1.30;;;;;;;10.62;100.00;96355.09;10416956;28;20598;-76
2022/05/25 04:57:47;;;;;;;3.77;1.40;;;;;;;10.85;100.00;96350.00;10416597;28;20243;-76
2022/05/25 05:02:47;;;;;;;1.65;1.33;;;;;;;11.11;100.00;96351.56;10416708;28;20192;-76
2022/05/25 05:07:47;;;;;;;2.03;1.50;;;;;;;11.38;100.00;96349.53;10416337;28;20192;-76
2022/05/25 05:12:48;;;;;;;5.35;1.40;;;;;;;11.61;100.00;96352.19;10414656;28;20204;-77
2022/05/25 05:17:48;;;;;;;1.75;1.30;;;;;;;11.92;100.00;96343.50;10419567;28;20205;-76
2022/05/25 05:23:08;;;;;;;1.60;1.33;;;;;;;12.32;100.00;96360.78;10398160;28;20185;-77
2022/05/25 05:28:15;;;;;;;1.80;1.38;;;;;;;12.94;100.00;96360.72;10398107;28;20712;-77
2022/05/25 05:33:15;;;;;;;2.63;1.10;;;;;;;13.28;96.11;96347.06;10373398;28;20193;-77
2022/05/25 05:38:16;;;;;;;4.43;1.27;;;;;;;13.73;93.72;96354.91;10409167;28;20881;-77
2022/05/25 05:43:17;;;;;;;4.03;1.30;;;;;;;13.70;94.29;96352.66;10415104;28;20192;-77
2022/05/25 05:48:20;;;;;;;1.30;1.20;;;;;;;13.83;92.38;96352.00;10415002;28;20192;-77
2022/05/25 05:53:21;;;;;;;1.10;1.00;;;;;;;14.12;91.36;96353.72;10397073;28;20715;-77
2022/05/25 05:58:22;;;;;;;2.30;1.13;;;;;;;14.40;90.89;96364.31;10394722;28;20320;-77
2022/05/25 06:03:22;;;;;;;2.03;1.17;;;;;;;14.47;90.40;96376.72;10414632;28;20187;-77
2022/05/25 06:08:27;;;;;;;6.65;1.20;;;;;;;14.57;91.37;96393.03;10414666;28;20707;-77
2022/05/25 06:13:27;;;;;;;6.25;1.60;;;;;;;14.24;91.34;96391.72;10414468;28;20206;-77
2022/05/25 06:24:00;;;;;;;15.55;1.30;;;;;;;14.44;85.43;96370.00;10380267;28;20579;-77
2022/05/25 06:29:01;;;;;;;4.93;1.25;;;;;;;14.36;81.25;96344.59;10413969;28;20242;-77
2022/05/25 06:34:01;;;;;;;6.80;1.58;;;;;;;13.72;78.33;96321.69;10413631;28;20196;-77
2022/05/25 06:39:02;;;;;;;9.05;2.17;;;;;;;13.50;79.96;96360.31;10413453;28;20224;-77
2022/05/25 06:44:03;;;;;;;8.32;2.00;;;;;;;13.62;80.19;96377.25;10413590;28;20192;-76
2022/05/25 06:49:03;;;;;;;5.50;1.45;;;;;;;13.41;77.01;96343.00;10412568;28;20188;-77
2022/05/25 06:54:04;;;;;;;3.13;1.20;;;;;;;13.85;77.55;96369.22;10412993;28;20319;-77
2022/05/25 06:59:05;;;;;;;3.55;1.30;;;;;;;13.33;78.44;96392.06;10407881;28;20213;-77
2022/05/25 07:04:06;;;;;;;7.53;1.10;;;;;;;13.61;78.90;96406.41;10410881;28;20203;-77
2022/05/25 07:09:08;;;;;;;4.25;1.10;;;;;;;13.17;80.77;96435.13;10410480;28;20782;-77
2022/05/25 07:14:09;;;;;;;7.35;1.30;;;;;;;13.23;80.45;96432.75;10410486;28;20250;-77
2022/05/25 07:19:09;;;;;;;2.80;1.30;;;;;;;13.41;80.13;96421.94;10409628;28;21137;-77
2022/05/25 07:24:10;;;;;;;3.90;1.33;;;;;;;12.98;84.03;96485.59;10410430;28;20267;-77
2022/05/25 07:29:11;;;;;;;8.23;1.45;;;;;;;12.99;88.48;96506.47;10412030;28;20177;-76
2022/05/25 07:34:18;;;;;;;7.18;1.27;;;;;;;12.90;90.49;96504.06;10414135;28;20196;-76
2022/05/25 07:39:21;;;;;;;3.05;1.70;;;;;;;12.87;92.72;96523.63;10405442;28;20290;-77
2022/05/25 07:44:25;;;;;;;12.80;2.08;;;;;;;12.90;92.95;96515.41;10425594;28;20196;-78
2022/05/25 07:49:26;;;;;;;6.78;1.73;;;;;;;12.61;94.60;96530.03;10409035;28;20185;-77
2022/05/25 07:54:26;;;;;;;2.63;1.50;;;;;;;12.44;100.00;96549.53;10408619;28;20659;-77
2022/05/25 07:59:28;;;;;;;7.72;2.22;;;;;;;12.12;100.00;96551.31;10417064;28;20224;-76
2022/05/25 08:10:00;;;;;;;10.65;2.55;;;;;;;12.24;100.00;96559.66;10415270;28;20200;-75
2022/05/25 08:15:00;;;;;;;2.55;1.90;;;;;;;12.20;100.00;96568.84;10406581;28;20184;-75
2022/05/25 08:20:02;;;;;;;2.58;1.70;;;;;;;12.22;100.00;96562.44;10425903;28;20688;-75
2022/05/25 08:25:02;;;;;;;7.57;1.40;;;;;;;12.26;100.00;96563.72;10433453;28;20188;-75
2022/05/25 08:30:03;;;;;;;2.97;1.60;;;;;;;12.27;100.00;96575.06;10435410;28;20185;-75
2022/05/25 08:35:04;;;;;;;3.25;2.15;;;;;;;12.44;100.00;96558.22;10419886;28;20554;-75
2022/05/25 08:40:05;;;;;;;2.17;1.50;;;;;;;12.36;100.00;96560.91;10415997;28;20250;-74
2022/05/25 08:45:06;;;;;;;2.20;1.55;;;;;;;12.40;100.00;96562.19;10416372;28;20291;-75
2022/05/25 08:50:07;;;;;;;3.15;1.42;;;;;;;12.34;100.00;96572.56;10399846;28;20564;-76
2022/05/25 08:55:09;;;;;;;4.22;2.00;;;;;;;12.27;100.00;96573.25;10444478;28;20260;-75
2022/05/25 09:00:14;;;;;;;3.55;1.52;;;;;;;12.39;100.00;96580.75;10456516;28;20599;-75
2022/05/25 09:05:20;;;;;;;3.55;1.50;;;;;;;12.37;100.00;96580.91;10438100;28;20192;-74
2022/05/25 09:10:21;;;;;;;2.15;1.40;;;;;;;12.14;100.00;96575.59;10437571;28;20296;-74
2022/05/25 09:15:28;;;;;;;1.48;1.17;;;;;;;12.09;100.00;96570.03;10456521;28;20192;-74
2022/05/25 09:20:31;;;;;;;1.92;1.23;;;;;;;12.29;100.00;96562.56;10455126;28;20709;-76
2022/05/25 09:25:32;;;;;;;2.53;1.25;;;;;;;12.63;100.00;96543.00;10438052;28;20646;-75
2022/05/25 09:30:35;;;;;;;3.97;1.63;;;;;;;12.38;100.00;96527.38;10412005;28;20196;-75
2022/05/25 09:35:44;;;;;;;1.60;1.50;;;;;;;12.74;100.00;96532.13;10412398;28;20193;-75
2022/05/25 09:40:46;;;;;;;1.85;1.60;;;;;;;12.98;100.00;96546.06;10412775;28;20221;-75
2022/05/25 09:45:49;;;;;;;3.38;1.15;;;;;;;13.38;100.00;96537.06;10412787;28;20207;-75
2022/05/25 09:57:26;;;;;;;3.03;1.10;;;;;;;14.30;94.11;96511.34;10426208;28;20216;-76
2022/05/25 10:02:46;;;;;;;1.35;1.10;;;;;;;15.36;89.70;96512.59;10426651;28;20688;-76
2022/05/25 10:07:55;;;;;;;1.30;0.90;;;;;;;15.74;83.05;96476.09;10454337;28;20195;-76
2022/05/25 10:13:23;;;;;;;3.55;0.90;;;;;;;16.01;81.21;96478.91;10453813;28;20191;-76
2022/05/25 10:18:43;;;;;;;1.83;1.02;;;;;;;14.77;83.73;96499.53;10444472;28;20572;-76
2022/05/25 10:23:44;;;;;;;1.35;0.70;;;;;;;15.95;77.65;96458.56;10394314;28;20535;-76
2022/05/25 10:28:45;;;;;;;0.90;0.90;;;;;;;15.41;78.71;96470.63;10411692;28;20193;-77
2022/05/25 10:39:22;;;;;;;1.70;1.00;;;;;;;17.34;73.51;96449.25;10395863;28;20213;-76
2022/05/25 10:44:23;;;;;;;6.53;1.08;;;;;;;16.89;73.38;96451.69;10411342;28;20196;-75
2022/05/25 10:49:31;;;;;;;2.25;1.10;;;;;;;16.64;73.04;96439.03;10410700;28;20189;-76
2022/05/25 10:54:47;;;;;;;1.83;1.10;;;;;;;17.13;70.71;96407.13;10393271;28;20239;-75
2022/05/25 11:00:16;;;;;;;2.25;1.00;;;;;;;18.02;68.83;96387.09;10410943;28;20212;-75
2022/05/25 11:05:58;;;;;;;2.15;1.02;;;;;;;18.42;72.57;96468.28;10410061;28;20227;-75
2022/05/25 11:11:10;;;;;;;1.63;0.80;;;;;;;18.52;66.01;96357.25;10408998;28;20204;-74
2022/05/25 11:16:40;;;;;;;0.60;0.60;;;;;;;19.65;58.48;96237.59;10434562;28;20648;-74
2022/05/25 11:22:05;;;;;;;1.27;0.80;;;;;;;18.40;63.48;96341.19;10433323;28;20219;-74
2022/05/25 11:27:27;;;;;;;1.30;0.68;;;;;;;19.06;60.67;96302.66;10444936;28;20199;-74
2022/05/25 11:32:49;;;;;;;2.25;0.90;;;;;;;18.26;59.16;96273.38;10450528;28;20237;-77
2022/05/25 11:38:00;;;;;;;3.85;0.70;;;;;;;17.83;60.59;96302.16;10379680;28;20234;-75
2022/05/25 11:43:42;;;;;;;3.13;1.02;;;;;;;18.39;57.00;96230.03;10391837;28;20193;-76
2022/05/25 11:49:04;;;;;;;2.08;0.98;;;;;;;18.55;61.81;96351.50;10408003;28;20682;-76
2022/05/25 11:54:38;;;;;;;1.75;0.77;;;;;;;19.77;55.81;96235.84;10413372;28;20684;-76
2022/05/25 11:59:50;;;;;;;2.65;0.90;;;;;;;18.02;59.40;96298.84;10439298;28;20227;-76
2022/05/25 12:05:04;;;;;;;3.85;1.25;;;;;;;20.01;55.44;96254.50;10449286;28;20607;-75
2022/05/25 12:10:10;;;;;;;2.33;0.90;;;;;;;19.32;52.68;96165.31;10398902;28;20193;-75
2022/05/25 12:15:28;;;;;;;1.20;0.75;;;;;;;20.24;53.34;96205.88;10407827;28;20255;-75
2022/05/25 12:20:40;;;;;;;1.92;0.73;;;;;;;22.78;47.22;96126.47;10407815;28;20216;-74
2022/05/25 12:25:53;;;;;;;0.47;0.47;;;;;;;20.78;49.57;96140.03;10404319;28;20570;-75
2022/05/25 12:30:58;;;;;;;2.40;0.88;;;;;;;18.10;55.72;96227.00;10448675;28;20212;-74
2022/05/25 12:36:01;;;;;;;3.25;0.80;;;;;;;20.00;50.41;96143.88;10431786;28;20647;-74
2022/05/25 12:41:27;;;;;;;0.60;0.50;;;;;;;23.24;44.71;96082.66;10407968;28;20831;-74
2022/05/25 12:52:28;;;;;;;1.08;0.50;;;;;;;22.44;43.88;96062.53;10396696;28;20189;-74
2022/05/25 12:57:47;;;;;;;3.03;0.50;;;;;;;23.97;41.74;96056.25;10438749;28;20319;-74
2022/05/25 13:02:48;;;;;;;2.08;0.60;;;;;;;21.69;42.99;96021.22;10426235;28;20223;-75
2022/05/25 13:07:49;;;;;;;1.27;0.60;;;;;;;20.10;46.85;96096.25;10406057;28;20203;-74
2022/05/25 13:12:55;;;;;;;2.17;0.65;;;;;;;23.16;40.71;96022.47;10415749;28;20184;-75
2022/05/25 13:17:57;;;;;;;3.60;0.75;;;;;;;23.38;39.94;96017.03;10405735;28;20192;-76
2022/05/25 13:22:59;;;;;;;1.08;0.65;;;;;;;22.37;41.26;96011.19;10396542;28;20192;-75
2022/05/25 13:28:28;;;;;;;1.20;0.70;;;;;;;26.37;36.67;96010.50;10396564;28;20196;-75
2022/05/25 13:33:38;;;;;;;0.93;0.60;;;;;;;27.58;34.25;95968.06;10387950;28;20221;-75
2022/05/25 13:38:55;;;;;;;0.80;0.57;;;;;;;27.47;33.93;95961.97;10405219;28;20255;-75
2022/05/25 13:43:58;;;;;;;2.95;0.60;;;;;;;27.07;33.99;95945.06;10385150;28;20203;-76
2022/05/25 13:48:59;;;;;;;3.60;0.75;;;;;;;27.49;33.80;95942.84;10398278;28;20200;-76
2022/05/25 13:53:59;;;;;;;3.22;0.80;;;;;;;24.65;37.15;95950.28;10412154;28;20259;-76
2022/05/25 13:59:05;;;;;;;2.60;0.90;;;;;;;27.43;33.72;95966.34;10408505;28;20229;-76
2022/05/25 14:04:11;;;;;;;2.58;0.70;;;;;;;24.91;37.98;95997.47;10411783;28;20199;-76
2022/05/25 14:14:34;;;;;;;1.20;0.68;;;;;;;24.44;39.55;96051.13;10452632;28;20203;-76
2022/05/25 14:19:47;;;;;;;1.55;0.70;;;;;;;26.44;35.76;95997.56;10410449;28;20225;-75
2022/05/25 14:24:50;;;;;;;2.60;0.75;;;;;;;25.22;37.10;95997.50;10417780;28;20660;-75
2022/05/25 14:29:51;;;;;;;4.35;0.85;;;;;;;27.13;35.89;96027.31;10452526;28;20274;-76
2022/05/25 14:34:56;;;;;;;2.10;0.80;;;;;;;29.86;31.45;95992.53;10452368;28;20200;-76
2022/05/25 14:39:59;;;;;;;1.90;0.70;;;;;;;27.05;33.86;95915.00;10434772;28;20224;-76
2022/05/25 14:45:03;;;;;;;1.75;0.50;;;;;;;27.26;34.96;95998.16;10434337;28;20279;-76
2022/05/25 14:50:21;;;;;;;1.92;0.70;;;;;;;29.73;30.73;95946.56;10422578;28;20275;-76
2022/05/25 14:55:33;;;;;;;1.33;0.70;;;;;;;29.59;31.41;95962.72;10393270;28;20240;-74
2022/05/25 15:00:38;;;;;;;2.28;0.60;;;;;;;27.22;34.12;95971.03;10409537;28;20240;-76
2022/05/25 15:05:43;;;;;;;5.25;0.80;;;;;;;26.97;35.18;96010.47;10392636;28;20189;-75
2022/05/25 15:10:44;;;;;;;1.92;0.82;;;;;;;27.56;34.12;96000.63;10409963;28;20271;-74
2022/05/25 15:21:13;;;;;;;1.27;0.70;;;;;;;29.00;32.37;95973.91;10334129;28;20479;-75
2022/05/25 15:26:20;;;;;;;5.50;0.80;;;;;;;29.45;32.39;96012.09;10445194;28;20203;-73
2022/05/25 15:31:20;;;;;;;1.67;0.90;;;;;;;28.75;32.61;95977.81;10432037;28;20648;-73
2022/05/25 15:36:22;;;;;;;3.37;0.70;;;;;;;30.46;29.75;95952.19;10449253;28;20334;-73
2022/05/25 15:41:23;;;;;;;0.50;0.50;;;;;;;27.62;34.31;95997.91;10450742;28;20497;-74
2022/05/25 15:46:24;;;;;;;1.17;0.80;;;;;;;25.04;36.42;95965.88;10448899;28;20287;-73
2022/05/25 15:51:27;;;;;;;1.55;0.60;;;;;;;22.46;42.09;96077.50;10444450;28;20442;-74
2022/05/25 15:56:27;;;;;;;1.13;1.00;;;;;;;22.65;42.05;96116.19;10390551;28;20232;-74
2022/05/25 16:01:28;;;;;;;1.17;0.80;;;;;;;22.12;43.51;96133.59;10390528;28;20231;-74
2022/05/25 16:06:28;;;;;;;1.88;1.02;;;;;;;19.86;47.50;96186.66;10390753;28;20652;-75
2022/05/25 16:11:34;;;;;;;1.58;0.80;;;;;;;21.05;46.43;96203.41;10407097;28;20597;-74
2022/05/25 16:16:35;;;;;;;5.13;1.17;;;;;;;21.79;45.46;96201.84;10391711;28;20196;-75
2022/05/25 16:21:35;;;;;;;1.00;0.90;;;;;;;20.55;47.09;96203.91;10392133;28;20231;-75
2022/05/25 16:26:37;;;;;;;0.90;0.80;;;;;;;20.40;49.51;96269.03;10429192;28;20184;-76
2022/05/25 16:31:39;;;;;;;1.70;0.90;;;;;;;20.70;48.91;96265.47;10416186;28;20184;-75
2022/05/25 16:36:40;;;;;;;3.63;1.27;;;;;;;20.28;50.54;96303.59;10450198;28;20191;-75
2022/05/25 16:41:43;;;;;;;3.72;1.00;;;;;;;21.00;48.78;96272.53;10415883;28;20222;-75
2022/05/25 16:46:43;;;;;;;1.77;1.00;;;;;;;20.54;48.26;96243.03;10455010;28;20195;-75
2022/05/25 16:51:44;;;;;;;1.30;0.90;;;;;;;20.45;50.33;96305.59;10455990;28;20196;-75
2022/05/25 16:56:44;;;;;;;3.40;1.00;;;;;;;20.65;50.29;96294.66;10457374;28;20289;-76
2022/05/25 17:01:45;;;;;;;4.30;0.90;;;;;;;20.58;49.77;96289.44;10457125;28;20220;-76
2022/05/25 17:06:45;;;;;;;1.70;0.80;;;;;;;20.65;48.66;96271.50;10456986;28;20188;-76
2022/05/25 17:11:47;;;;;;;2.70;1.10;;;;;;;20.36;51.03;96322.94;10456779;28;20196;-75
2022/05/25 17:16:47;;;;;;;3.92;1.02;;;;;;;19.68;52.05;96331.00;10456628;28;20275;-75
2022/05/25 17:21:48;;;;;;;2.95;1.50;;;;;;;19.55;52.82;96342.59;10456442;28;20215;-76
2022/05/25 17:26:49;;;;;;;2.75;1.20;;;;;;;19.20;55.42;96401.63;10450177;28;20230;-76
2022/05/25 17:31:51;;;;;;;0.95;0.85;;;;;;;19.03;56.00;96414.63;10455891;28;20535;-75
2022/05/25 17:43:07;;;;;;;1.10;0.88;;;;;;;18.53;58.18;96439.25;10415789;28;20299;-75
2022/05/25 17:48:08;;;;;;;1.83;0.98;;;;;;;18.37;58.45;96439.75;10409733;28;20363;-75
2022/05/25 17:53:09;;;;;;;2.00;0.90;;;;;;;17.18;64.23;96539.66;10395808;28;20232;-75
2022/05/25 17:58:10;;;;;;;1.30;0.88;;;;;;;16.57;67.06;96557.22;10428484;28;20192;-75
2022/05/25 18:03:10;;;;;;;1.73;0.80;;;;;;;16.53;70.08;96574.50;10430945;28;20652;-75
2022/05/25 18:08:11;;;;;;;2.65;1.30;;;;;;;15.99;75.35;96579.50;10430746;28;20187;-74
2022/05/25 18:19:34;;;;;;;4.72;1.17;;;;;;;15.50;78.04;96544.22;10443359;28;20774;-75
2022/05/25 18:24:34;;;;;;;1.98;1.13;;;;;;;15.44;78.16;96544.16;10453147;28;20220;-74
2022/05/25 18:29:35;;;;;;;2.33;0.85;;;;;;;15.54;78.74;96546.47;10447567;28;20188;-75
2022/05/25 18:34:35;;;;;;;4.03;1.10;;;;;;;15.22;79.26;96546.00;10426786;28;20275;-75
2022/05/25 18:39:36;;;;;;;4.43;1.17;;;;;;;14.83;82.56;96569.19;10429723;28;20274;-75
2022/05/25 18:44:37;;;;;;;2.83;1.08;;;;;;;14.94;83.86;96563.41;10428600;28;20218;-75
2022/05/25 18:49:37;;;;;;;3.40;1.67;;;;;;;14.15;85.13;96576.44;10429488;28;20207;-75
2022/05/25 18:54:38;;;;;;;2.53;1.17;;;;;;;13.77;86.64;96582.59;10421604;28;20323;-76
2022/05/25 18:59:39;;;;;;;1.95;1.17;;;;;;;13.15;91.42;96588.84;10452300;28;20299;-75
2022/05/25 19:04:39;;;;;;;4.55;1.10;;;;;;;12.87;91.19;96591.19;10452435;28;20188;-75
2022/05/25 19:09:40;;;;;;;3.20;1.13;;;;;;;12.87;90.83;96588.56;10427138;28;20199;-75
2022/05/25 19:14:40;;;;;;;2.13;1.25;;;;;;;12.83;90.46;96590.69;10452099;28;20195;-75
2022/05/25 19:19:43;;;;;;;2.30;1.30;;;;;;;12.53;92.13;96606.31;10437274;28;20215;-75
2022/05/25 19:24:45;;;;;;;6.20;1.40;;;;;;;12.57;92.24;96605.00;10451258;28;20561;-75
2022/05/25 19:29:45;;;;;;;4.53;1.52;;;;;;;12.42;93.68;96620.66;10437546;28;20272;-74
2022/05/25 19:34:46;;;;;;;4.13;2.00;;;;;;;12.35;94.79;96635.44;10435580;28;20559;-75
2022/05/25 19:39:50;;;;;;;1.60;1.48;;;;;;;12.43;93.45;96631.97;10447325;28;20562;-75
2022/05/25 19:44:52;;;;;;;1.20;1.10;;;;;;;12.54;91.59;96638.66;10409013;28;20191;-75
2022/05/25 19:55:12;;;;;;;2.30;1.40;;;;;;;12.36;91.69;96650.22;10434777;28;20243;-75
2022/05/25 20:00:17;;;;;;;1.88;1.25;;;;;;;12.21;92.08;96654.53;10450447;28;20227;-75
2022/05/25 20:05:18;;;;;;;1.50;1.25;;;;;;;11.96;93.48;96657.22;10450139;28;20199;-75
2022/05/25 20:10:20;;;;;;;2.35;1.42;;;;;;;11.82;94.87;96666.53;10449984;28;20678;-75
2022/05/25 20:15:21;;;;;;;1.97;1.27;;;;;;;11.71;96.46;96675.56;10432339;28;20200;-75
2022/05/25 20:20:22;;;;;;;3.07;1.50;;;;;;;11.61;97.23;96674.91;10430826;28;20695;-75
2022/05/25 20:25:24;;;;;;;2.50;1.70;;;;;;;11.50;98.59;96675.22;10422024;28;20513;-74
2022/05/25 20:30:25;;;;;;;3.85;1.92;;;;;;;11.40;100.00;96683.25;10408736;28;20191;-75
2022/05/25 20:35:25;;;;;;;2.40;1.60;;;;;;;11.41;99.72;96696.22;10390887;28;20196;-74
2022/05/25 20:40:26;;;;;;;9.52;2.20;;;;;;;11.36;100.00;96692.41;10407960;28;20223;-75
2022/05/25 20:45:26;;;;;;;3.67;2.00;;;;;;;11.26;100.00;96694.41;10408711;28;20188;-75
2022/05/25 20:50:27;;;;;;;4.97;1.83;;;;;;;11.07;100.00;96693.66;10415828;28;20641;-75
2022/05/25 20:55:27;;;;;;;4.87;1.47;;;;;;;10.91;100.00;96704.13;10410624;28;20700;-75
2022/05/25 21:00:34;;;;;;;6.43;1.43;;;;;;;10.79;100.00;96706.22;10418304;28;20696;-73
2022/05/25 21:05:35;;;;;;;6.97;1.90;;;;;;;10.59;100.00;96701.22;10407474;28;20192;-74
2022/05/25 21:10:37;;;;;;;4.23;1.83;;;;;;;10.48;100.00;96715.41;10407847;28;20268;-74
2022/05/25 21:15:38;;;;;;;3.67;1.77;;;;;;;10.43;100.00;96717.66;10407864;28;20200;-75
2022/05/25 21:20:39;;;;;;;2.80;1.60;;;;;;;10.36;100.00;96721.88;10407090;28;20585;-76
2022/05/25 21:25:42;;;;;;;2.13;1.60;;;;;;;10.18;100.00;96722.72;10408545;28;20224;-77
2022/05/25 21:36:02;;;;;;;1.83;1.37;;;;;;;9.99;100.00;96723.72;10413794;28;20192;-75
2022/05/25 21:41:03;;;;;;;5.93;1.50;;;;;;;9.90;100.00;96727.25;10415472;28;20227;-75
2022/05/25 21:51:23;;;;;;;3.23;1.43;;;;;;;9.94;100.00;96733.84;10397498;28;20224;-75
2022/05/25 21:56:23;;;;;;;1.93;1.30;;;;;;;9.90;100.00;96729.88;10414644;28;20267;-75
2022/05/25 22:01:24;;;;;;;1.20;1.10;;;;;;;9.80;100.00;96734.38;10414473;28;20220;-76
2022/05/25 22:06:24;;;;;;;3.53;1.73;;;;;;;9.73;100.00;96733.34;10414213;28;20549;-76
2022/05/25 22:11:25;;;;;;;1.37;1.27;;;;;;;9.61;100.00;96722.28;10413791;28;20189;-75
2022/05/25 22:16:26;;;;;;;6.43;1.40;;;;;;;9.54;100.00;96735.16;10413818;28;20238;-76
2022/05/25 22:21:26;;;;;;;2.33;1.40;;;;;;;9.49;100.00;96737.38;10395107;28;20227;-76
2022/05/25 22:26:27;;;;;;;1.60;1.30;;;;;;;9.53;100.00;96743.16;10413809;28;20188;-75
2022/05/25 22:31:27;;;;;;;1.90;1.57;;;;;;;9.51;100.00;96745.06;10413100;28;20196;-76
2022/05/25 22:36:27;;;;;;;2.63;1.40;;;;;;;9.51;100.00;96740.69;10413149;28;20275;-75
2022/05/25 22:41:28;;;;;;;3.53;1.60;;;;;;;9.47;100.00;96736.72;10411744;28;20227;-75
2022/05/25 22:46:28;;;;;;;1.80;1.20;;;;;;;9.43;100.00;96741.41;10412414;28;20671;-76
2022/05/25 22:51:29;;;;;;;3.43;1.33;;;;;;;9.34;100.00;96736.25;10412413;28;20677;-76
2022/05/25 22:56:29;;;;;;;2.00;1.30;;;;;;;9.24;100.00;96742.34;10394179;28;20750;-76
2022/05/25 23:01:30;;;;;;;4.93;1.80;;;;;;;9.14;100.00;96746.81;10411721;28;20224;-76
2022/05/25 23:06:30;;;;;;;0.93;0.93;;;;;;;9.15;100.00;96743.25;10411574;28;20228;-76
2022/05/25 23:11:30;;;;;;;1.27;1.17;;;;;;;9.12;100.00;96747.94;10411802;28;20247;-76
2022/05/25 23:16:31;;;;;;;3.20;1.40;;;;;;;9.07;100.00;96743.97;10411004;28;20204;-76
2022/05/25 23:21:31;;;;;;;1.40;1.30;;;;;;;9.01;100.00;96746.34;10410967;28;20217;-76
2022/05/25 23:26:31;;;;;;;1.57;1.10;;;;;;;8.97;100.00;96737.16;10411243;28;20307;-76
2022/05/25 23:31:35;;;;;;;1.73;1.53;;;;;;;8.84;100.00;96738.31;10410570;28;20180;-76
2022/05/25 23:36:37;;;;;;;2.37;1.30;;;;;;;8.87;100.00;96739.81;10411020;28;20268;-76
2022/05/25 23:46:57;;;;;;;1.57;1.30;;;;;;;8.93;100.00;96741.84;10369497;28;20908;-76
2022/05/25 23:51:57;;;;;;;1.53;1.10;;;;;;;8.87;100.00;96743.25;10351471;28;20189;-76
2022/05/25 23:56:57;;;;;;;1.10;1.00;;;;;;;8.87;100.00;96730.19;10369122;28;20245;-76
